This is the latest recevied weather packets stored in our database for station/object N0EDB-13. If no packets are shown the sender has not sent any weather packets the latest 10 day(s).
| Time | Temp. | Humidity | Pressure | Rain* | Wind** | Luminosity | Snow |
|---|---|---|---|---|---|---|---|
| 1777775953 | 13.89° C | 23% | 1492.4 hPa | 0 mm | - | 0 W/m² | - |
| 1777775653 | 14.44° C | 23% | 1491.1 hPa | 0 mm | - | 0 W/m² | - |
| 1777775353 | 15° C | 21% | 1489.5 hPa | 0 mm | - | 0 W/m² | - |
| 1777775052 | 15.56° C | 20% | 1487.6 hPa | 0 mm | - | 0 W/m² | - |
| 1777774752 | 16.11° C | 20% | 1485.6 hPa | 0 mm | - | 0 W/m² | - |
| 1777774451 | 16.67° C | 19% | 1483.8 hPa | 0 mm | - | 0 W/m² | - |
| 1777774151 | 17.22° C | 17% | 1482.3 hPa | 0 mm | - | 1 W/m² | - |
| 1777773850 | 17.78° C | 16% | 1481 hPa | 0 mm | - | 1 W/m² | - |
| 1777773549 | 18.33° C | 16% | 1479.8 hPa | 0 mm | - | 2 W/m² | - |
| 1777773248 | 18.89° C | 15% | 1478.7 hPa | 0 mm | - | 4 W/m² | - |
| 1777772948 | 19.44° C | 15% | 1477.3 hPa | 0 mm | - | 7 W/m² | - |
| 1777772648 | 19.44° C | 14% | 1476 hPa | 0 mm | - | 10 W/m² | - |
| 1777772347 | 20° C | 14% | 1474.8 hPa | 0 mm | - | 13 W/m² | - |
| 1777772046 | 20.56° C | 14% | 1473.1 hPa | 0 mm | - | 17 W/m² | - |
| 1777771745 | 21.67° C | 13% | 1471.3 hPa | 0 mm | - | 20 W/m² | - |
| 1777771444 | 22.22° C | 13% | 1469.4 hPa | 0 mm | - | 24 W/m² | - |
| 1777771143 | 22.78° C | 12% | 1467.4 hPa | 0 mm | - | 27 W/m² | - |
| 1777770842 | 23.33° C | 12% | 1466 hPa | 0 mm | - | 39 W/m² | - |
| 1777770541 | 23.89° C | 11% | 1465.3 hPa | 0 mm | - | 70 W/m² | - |
| 1777770240 | 23.89° C | 11% | 1465 hPa | 0 mm | - | 82 W/m² | - |
| 1777769940 | 23.89° C | 10% | 1465.1 hPa | 0 mm | - | 96 W/m² | - |
| 1777769640 | 23.89° C | 10% | 1464.4 hPa | 0 mm | - | 110 W/m² | - |
| 1777769339 | 24.44° C | 10% | 1463.3 hPa | 0 mm | - | 124 W/m² | - |
| 1777769038 | 24.44° C | 10% | 1462.6 hPa | 0 mm | - | 140 W/m² | - |
| 1777768738 | 24.44° C | 10% | 1462.7 hPa | 0 mm | - | 156 W/m² | - |
* Rain latest hour (hover to see other rain measurements)
** Current wind speed in m/s (hover to see current wind gust speed)